createdAt,value
2018-11-06T00:00:30.375Z,97.50
2018-11-06T00:03:11.806Z,98.90
2018-11-06T00:05:47.848Z,99.30
2018-11-06T00:08:23.881Z,99.10
2018-11-06T00:11:00.114Z,98.30
2018-11-06T00:13:36.180Z,97.20
2018-11-06T00:16:12.394Z,99.90
2018-11-06T00:18:48.411Z,99.90
2018-11-06T00:21:24.607Z,99.90
2018-11-06T00:24:00.793Z,99.90
2018-11-06T00:26:36.881Z,99.90
2018-11-06T00:29:13.006Z,99.90
2018-11-06T00:31:49.029Z,99.90
2018-11-06T00:34:25.236Z,99.90
2018-11-06T00:37:01.487Z,99.90
2018-11-06T00:39:37.689Z,99.00
2018-11-06T00:42:13.821Z,99.20
2018-11-06T00:44:49.956Z,99.00
2018-11-06T00:47:26.408Z,93.60
2018-11-06T00:50:02.466Z,95.70
2018-11-06T00:52:39.423Z,98.20
2018-11-06T00:55:15.719Z,99.60
2018-11-06T00:57:51.732Z,99.90
2018-11-06T01:00:28.093Z,99.90
2018-11-06T01:03:04.052Z,99.90
2018-11-06T01:05:40.317Z,99.90
2018-11-06T01:08:16.466Z,99.90
2018-11-06T01:10:52.703Z,99.90
2018-11-06T01:13:29.264Z,99.90
2018-11-06T01:16:05.705Z,99.90
2018-11-06T01:18:42.068Z,99.90
2018-11-06T01:21:18.099Z,99.90
2018-11-06T01:23:54.310Z,99.90
2018-11-06T01:26:30.863Z,99.90
2018-11-06T01:29:07.628Z,99.90
2018-11-06T01:31:43.664Z,99.90
2018-11-06T01:34:19.782Z,99.90
2018-11-06T01:36:55.939Z,99.90
2018-11-06T01:39:32.115Z,99.90
2018-11-06T01:42:08.280Z,99.90
2018-11-06T01:44:44.287Z,99.90
2018-11-06T01:47:20.445Z,99.90
2018-11-06T01:49:56.444Z,99.90
2018-11-06T01:52:32.497Z,99.90
2018-11-06T01:55:09.421Z,99.90
2018-11-06T01:57:45.637Z,99.90
2018-11-06T02:00:21.783Z,99.90
2018-11-06T02:02:57.826Z,99.90
2018-11-06T02:05:33.927Z,99.90
2018-11-06T02:08:09.965Z,99.90
2018-11-06T02:10:46.000Z,99.90
2018-11-06T02:13:22.168Z,99.90
2018-11-06T02:15:58.389Z,99.90
2018-11-06T02:18:34.628Z,99.90
2018-11-06T02:21:10.779Z,99.90
2018-11-06T02:23:47.061Z,99.90
2018-11-06T02:26:23.290Z,99.90
2018-11-06T02:28:59.625Z,99.90
2018-11-06T02:31:35.647Z,99.90
2018-11-06T02:34:11.808Z,99.90
2018-11-06T02:36:47.970Z,99.90
2018-11-06T02:39:24.202Z,99.90
2018-11-06T02:42:00.352Z,99.90
2018-11-06T02:44:36.507Z,99.90
2018-11-06T02:47:12.739Z,99.90
2018-11-06T02:49:48.830Z,99.90
2018-11-06T02:52:24.905Z,99.90
2018-11-06T02:55:00.948Z,99.90
2018-11-06T02:57:37.170Z,99.90
2018-11-06T03:00:16.996Z,99.90
2018-11-06T03:02:53.473Z,99.90
2018-11-06T03:05:29.481Z,99.90
2018-11-06T03:08:05.549Z,99.90
2018-11-06T03:10:41.705Z,99.90
2018-11-06T03:13:17.837Z,99.90
2018-11-06T03:15:54.042Z,99.90
2018-11-06T03:18:30.080Z,99.90
2018-11-06T03:21:06.107Z,99.90
2018-11-06T03:23:42.236Z,99.90
2018-11-06T03:26:18.538Z,99.90
2018-11-06T03:28:54.463Z,99.90
2018-11-06T03:31:30.667Z,99.90
2018-11-06T03:34:07.545Z,99.90
2018-11-06T03:36:43.609Z,99.90
2018-11-06T03:39:19.746Z,99.90
2018-11-06T03:41:55.916Z,99.90
2018-11-06T03:44:32.067Z,99.90
2018-11-06T03:47:08.263Z,99.90
2018-11-06T03:49:44.332Z,99.90
2018-11-06T03:52:20.490Z,99.90
2018-11-06T03:54:56.643Z,99.90
2018-11-06T03:57:32.723Z,99.90
2018-11-06T04:00:12.148Z,99.90
2018-11-06T04:02:48.119Z,99.90
2018-11-06T04:05:24.132Z,99.90
2018-11-06T04:08:00.245Z,99.90
2018-11-06T04:10:36.336Z,99.90
2018-11-06T04:13:13.570Z,99.90
2018-11-06T04:15:49.626Z,99.90
2018-11-06T04:18:25.775Z,99.90
2018-11-06T04:21:01.904Z,99.90
2018-11-06T04:23:38.124Z,99.90
2018-11-06T04:26:14.215Z,99.90
2018-11-06T04:28:50.347Z,99.90
2018-11-06T04:31:26.559Z,99.90
2018-11-06T04:34:02.683Z,99.90
2018-11-06T04:36:38.815Z,99.90
2018-11-06T04:39:14.931Z,99.90
2018-11-06T04:41:50.952Z,99.90
2018-11-06T04:44:27.143Z,99.90
2018-11-06T04:47:03.353Z,99.90
2018-11-06T04:49:39.337Z,99.90
2018-11-06T04:52:15.545Z,99.90
2018-11-06T04:54:51.604Z,99.90
2018-11-06T04:57:27.941Z,99.90
2018-11-06T05:00:04.432Z,99.90
2018-11-06T05:02:40.688Z,99.90
2018-11-06T05:05:16.847Z,99.90
2018-11-06T05:07:52.845Z,99.90
2018-11-06T05:10:28.862Z,99.90
2018-11-06T05:13:05.128Z,99.90
2018-11-06T05:15:41.132Z,99.90
2018-11-06T05:18:17.206Z,99.90
2018-11-06T05:20:53.429Z,99.90
2018-11-06T05:23:29.663Z,99.90
2018-11-06T05:26:05.856Z,99.90
2018-11-06T05:28:41.982Z,99.90
2018-11-06T05:31:18.578Z,99.90
2018-11-06T05:33:55.431Z,99.90
2018-11-06T05:36:31.490Z,99.90
2018-11-06T05:39:10.276Z,99.90
2018-11-06T05:41:46.066Z,99.90
2018-11-06T05:44:22.294Z,99.90
2018-11-06T05:46:58.276Z,99.90
2018-11-06T05:49:34.466Z,99.90
2018-11-06T05:52:10.846Z,99.90
2018-11-06T05:54:46.822Z,99.90
2018-11-06T05:57:22.891Z,99.90
2018-11-06T05:59:59.181Z,99.90
2018-11-06T06:02:35.394Z,99.90
2018-11-06T06:05:12.264Z,99.90
2018-11-06T06:07:48.344Z,99.90
2018-11-06T06:10:24.433Z,99.90
2018-11-06T06:13:00.677Z,99.90
2018-11-06T06:15:36.877Z,99.90
2018-11-06T06:18:13.128Z,99.90
2018-11-06T06:20:50.253Z,99.90
2018-11-06T06:23:26.248Z,99.90
2018-11-06T06:26:02.764Z,99.90
2018-11-06T06:28:38.931Z,99.90
2018-11-06T06:31:15.222Z,99.90
2018-11-06T06:33:51.688Z,99.90
2018-11-06T06:36:27.810Z,99.90
2018-11-06T06:39:04.638Z,99.90
2018-11-06T06:41:40.715Z,99.90
2018-11-06T06:44:17.038Z,99.90
2018-11-06T06:46:53.382Z,99.90
2018-11-06T06:49:29.425Z,99.90
2018-11-06T06:52:06.250Z,99.90
2018-11-06T06:54:42.291Z,99.90
2018-11-06T06:57:18.483Z,99.90
2018-11-06T06:59:54.693Z,99.90
2018-11-06T07:02:30.893Z,99.90
2018-11-06T07:05:09.580Z,99.90
2018-11-06T07:07:45.980Z,99.90
2018-11-06T07:10:22.986Z,99.90
2018-11-06T07:12:59.305Z,99.90
2018-11-06T07:15:35.329Z,99.90
2018-11-06T07:18:12.083Z,99.90
2018-11-06T07:20:48.354Z,99.90
2018-11-06T07:23:24.471Z,99.90
2018-11-06T07:26:00.791Z,99.90
2018-11-06T07:28:37.037Z,99.90
2018-11-06T07:31:13.385Z,99.90
2018-11-06T07:33:49.507Z,99.90
2018-11-06T07:36:25.801Z,99.90
2018-11-06T07:39:01.942Z,99.90
2018-11-06T07:41:38.714Z,99.90
2018-11-06T07:44:15.091Z,99.90
2018-11-06T07:46:51.746Z,99.90
2018-11-06T07:49:29.065Z,99.90
2018-11-06T07:52:05.586Z,99.90
2018-11-06T07:54:41.744Z,99.90
2018-11-06T07:57:17.895Z,99.90
2018-11-06T07:59:54.183Z,99.90
2018-11-06T08:02:30.294Z,99.90
2018-11-06T08:05:06.816Z,99.90
2018-11-06T08:07:43.673Z,99.90
2018-11-06T08:10:19.970Z,99.90
2018-11-06T08:12:56.150Z,99.90
2018-11-06T08:15:32.332Z,99.90
2018-11-06T08:18:08.310Z,99.90
2018-11-06T08:27:07.548Z,99.90
2018-11-06T08:29:43.813Z,99.90
2018-11-06T08:32:20.770Z,99.90
2018-11-06T08:34:56.813Z,99.90
2018-11-06T08:37:33.844Z,99.90
2018-11-06T08:40:11.044Z,99.90
2018-11-06T08:42:48.204Z,99.90
2018-11-06T08:45:24.522Z,99.90
2018-11-06T08:48:00.713Z,99.90
2018-11-06T08:50:37.979Z,99.90
2018-11-06T08:53:14.397Z,99.90
2018-11-06T08:55:51.050Z,99.90
2018-11-06T08:58:27.427Z,98.40
2018-11-06T09:01:03.642Z,97.00
2018-11-06T09:03:43.689Z,96.30
2018-11-06T09:06:21.396Z,95.50
2018-11-06T09:08:58.637Z,96.40
2018-11-06T09:11:44.984Z,94.50
2018-11-06T09:14:24.549Z,92.80
2018-11-06T09:17:04.971Z,90.90
2018-11-06T09:19:40.979Z,89.10
2018-11-06T09:22:19.358Z,87.40
2018-11-06T09:24:55.909Z,87.50
2018-11-06T09:27:32.245Z,86.50
2018-11-06T09:30:12.680Z,84.10
2018-11-06T09:32:48.875Z,83.90
2018-11-06T09:35:25.323Z,84.50
2018-11-06T09:38:01.591Z,86.00
2018-11-06T09:40:37.971Z,87.70
2018-11-06T09:43:14.379Z,87.70
2018-11-06T09:45:51.653Z,87.40
2018-11-06T09:48:27.877Z,86.40
2018-11-06T09:51:03.981Z,86.90
2018-11-06T09:53:40.039Z,89.20
2018-11-06T09:56:16.156Z,89.70
2018-11-06T09:58:52.252Z,90.00
2018-11-06T10:01:30.498Z,89.80
2018-11-06T10:04:06.851Z,89.20
2018-11-06T10:06:43.289Z,89.90
2018-11-06T10:09:19.383Z,89.60
2018-11-06T10:11:55.720Z,91.00
2018-11-06T10:14:32.625Z,90.60
2018-11-06T10:17:08.842Z,89.00
2018-11-06T10:19:45.064Z,88.70
2018-11-06T10:22:27.157Z,88.10
2018-11-06T10:25:03.271Z,87.70
2018-11-06T10:27:39.844Z,85.40
2018-11-06T10:30:17.345Z,85.10
2018-11-06T10:32:54.639Z,85.50
2018-11-06T10:35:30.818Z,87.40
2018-11-06T10:38:10.146Z,88.50
2018-11-06T10:40:46.371Z,88.00
2018-11-06T10:43:22.622Z,88.40
2018-11-06T10:45:58.640Z,89.30
2018-11-06T10:48:36.923Z,88.70
2018-11-06T10:51:13.213Z,88.60
2018-11-06T10:53:55.605Z,88.60
2018-11-06T10:56:31.752Z,89.20
2018-11-06T10:59:08.330Z,89.10
2018-11-06T11:01:49.761Z,88.70
2018-11-06T11:04:29.864Z,89.20
2018-11-06T11:07:06.241Z,88.70
2018-11-06T11:09:42.384Z,87.60
2018-11-06T11:12:18.489Z,88.00
2018-11-06T11:14:54.602Z,86.70
2018-11-06T11:17:30.797Z,85.30
2018-11-06T11:20:10.213Z,78.90
2018-11-06T11:22:46.331Z,76.20
2018-11-06T11:25:22.395Z,74.30
2018-11-06T11:27:58.468Z,70.60
2018-11-06T11:30:35.376Z,68.40
2018-11-06T11:33:11.675Z,67.30
2018-11-06T11:35:47.761Z,66.50
2018-11-06T11:38:23.890Z,66.90
2018-11-06T11:41:00.171Z,67.60
2018-11-06T11:43:36.278Z,69.20
2018-11-06T11:46:12.602Z,70.30
2018-11-06T11:48:48.808Z,71.90
2018-11-06T11:51:25.052Z,73.10
2018-11-06T11:54:06.642Z,74.10
2018-11-06T11:56:42.914Z,76.30
2018-11-06T11:59:20.250Z,77.00
2018-11-06T12:01:56.664Z,77.70
2018-11-06T12:04:32.891Z,78.50
2018-11-06T12:07:10.082Z,79.50
2018-11-06T12:09:47.297Z,80.60
2018-11-06T12:12:23.646Z,81.70
2018-11-06T12:15:00.212Z,82.40
2018-11-06T12:17:36.482Z,82.00
2018-11-06T12:20:22.868Z,82.50
2018-11-06T12:22:59.136Z,83.20
2018-11-06T12:25:35.637Z,82.80
2018-11-06T12:28:11.906Z,83.60
2018-11-06T12:30:48.313Z,83.70
2018-11-06T12:33:28.790Z,82.90
2018-11-06T12:36:05.438Z,82.70
2018-11-06T12:38:41.709Z,82.60
2018-11-06T12:41:17.937Z,83.70
2018-11-06T12:43:55.551Z,84.30
2018-11-06T12:46:32.797Z,85.10
2018-11-06T12:49:09.052Z,84.50
2018-11-06T12:51:45.324Z,83.90
2018-11-06T12:54:21.716Z,83.80
2018-11-06T12:56:59.514Z,84.40
2018-11-06T12:59:35.792Z,84.50
2018-11-06T13:02:12.164Z,84.50
2018-11-06T13:04:48.683Z,85.00
2018-11-06T13:07:25.694Z,85.60
2018-11-06T13:10:02.248Z,85.00
2018-11-06T13:12:38.640Z,84.50
2018-11-06T13:15:15.639Z,83.70
2018-11-06T13:17:51.125Z,82.70
2018-11-06T13:20:28.626Z,82.10
2018-11-06T13:23:04.898Z,82.00
2018-11-06T13:25:41.248Z,81.50
2018-11-06T13:28:17.337Z,82.00
2018-11-06T13:30:53.396Z,80.60
2018-11-06T13:33:29.713Z,81.30
2018-11-06T13:36:07.669Z,82.10
2018-11-06T13:38:43.881Z,82.20
2018-11-06T13:41:20.053Z,81.90
2018-11-06T13:43:56.580Z,81.90
2018-11-06T13:46:35.009Z,81.00
2018-11-06T13:49:11.468Z,80.20
2018-11-06T13:51:47.795Z,81.00
2018-11-06T13:54:23.916Z,81.10
2018-11-06T13:57:01.214Z,80.20
2018-11-06T13:59:37.418Z,79.80
2018-11-06T14:02:13.528Z,79.00
2018-11-06T14:04:50.644Z,79.10
2018-11-06T14:07:26.829Z,78.60
2018-11-06T14:10:03.107Z,77.80
2018-11-06T14:12:39.590Z,78.10
2018-11-06T14:15:15.937Z,77.90
2018-11-06T14:17:52.155Z,76.80
2018-11-06T14:20:28.214Z,76.40
2018-11-06T14:23:04.534Z,76.10
2018-11-06T14:25:41.153Z,75.80
2018-11-06T14:28:17.522Z,75.60
2018-11-06T14:30:54.426Z,75.60
2018-11-06T14:33:30.650Z,76.30
2018-11-06T14:36:06.813Z,77.40
2018-11-06T14:38:43.542Z,78.40
2018-11-06T14:41:19.868Z,79.40
2018-11-06T14:43:56.206Z,79.20
2018-11-06T14:46:34.466Z,79.10
2018-11-06T14:49:10.776Z,79.20
2018-11-06T14:51:46.816Z,79.40
2018-11-06T14:54:22.957Z,80.00
2018-11-06T14:56:59.197Z,80.20
2018-11-06T14:59:35.516Z,80.40
2018-11-06T15:02:11.802Z,80.90
2018-11-06T15:04:49.409Z,81.10
2018-11-06T15:07:30.591Z,81.10
2018-11-06T15:10:08.057Z,81.30
2018-11-06T15:12:44.792Z,81.60
2018-11-06T15:15:20.958Z,82.00
2018-11-06T15:17:57.118Z,82.30
2018-11-06T15:20:33.139Z,82.90
2018-11-06T15:23:09.285Z,83.40
2018-11-06T15:25:45.290Z,84.00
2018-11-06T15:28:21.641Z,83.70
2018-11-06T15:30:57.893Z,83.80
2018-11-06T15:33:35.128Z,83.80
2018-11-06T15:36:11.264Z,84.40
2018-11-06T15:38:47.462Z,85.70
2018-11-06T15:41:24.671Z,86.80
2018-11-06T15:44:00.764Z,88.70
2018-11-06T15:46:36.977Z,89.60
2018-11-06T15:49:13.196Z,90.50
2018-11-06T15:51:50.239Z,91.20
2018-11-06T15:54:26.384Z,91.30
2018-11-06T15:57:02.741Z,91.70
2018-11-06T15:59:39.351Z,92.60
2018-11-06T16:02:15.519Z,92.80
2018-11-06T16:04:51.695Z,92.40
2018-11-06T16:07:27.851Z,93.90
2018-11-06T16:10:04.705Z,94.50
2018-11-06T16:12:41.028Z,95.30
2018-11-06T16:15:17.287Z,95.30
2018-11-06T16:17:54.707Z,96.40
2018-11-06T16:20:31.004Z,96.70
2018-11-06T16:23:07.252Z,97.40
2018-11-06T16:25:44.720Z,98.40
2018-11-06T16:28:20.847Z,98.50
2018-11-06T16:30:58.104Z,97.90
2018-11-06T16:33:34.382Z,97.00
2018-11-06T16:36:10.743Z,98.00
2018-11-06T16:38:46.846Z,98.70
2018-11-06T16:41:23.200Z,99.90
2018-11-06T16:43:59.335Z,99.60
2018-11-06T16:46:35.851Z,99.90
2018-11-06T16:49:12.156Z,99.90
2018-11-06T16:51:48.299Z,99.90
2018-11-06T16:54:24.452Z,99.90
2018-11-06T16:57:00.665Z,99.90
2018-11-06T16:59:37.177Z,99.90
2018-11-06T17:02:15.581Z,99.90
2018-11-06T17:04:52.104Z,99.90
2018-11-06T17:07:28.522Z,99.90
2018-11-06T17:10:05.972Z,99.90
2018-11-06T17:12:42.124Z,99.90
2018-11-06T17:15:20.104Z,99.90
2018-11-06T17:17:56.299Z,99.90
2018-11-06T17:20:39.076Z,99.90
2018-11-06T17:23:15.273Z,99.90
2018-11-06T17:25:52.366Z,99.90
2018-11-06T17:28:29.270Z,99.90
2018-11-06T17:31:06.594Z,99.90
2018-11-06T17:33:42.727Z,99.90
2018-11-06T17:36:18.889Z,99.90
2018-11-06T17:38:56.530Z,99.90
2018-11-06T17:41:33.585Z,99.90
2018-11-06T17:44:13.507Z,98.50
2018-11-06T17:46:49.824Z,99.90
2018-11-06T17:49:28.889Z,99.90
2018-11-06T17:52:05.908Z,99.90
2018-11-06T17:54:42.178Z,99.90
2018-11-06T17:57:19.861Z,99.90
2018-11-06T17:59:56.553Z,99.90
2018-11-06T18:02:32.881Z,99.90
2018-11-06T18:05:12.338Z,99.90
2018-11-06T18:07:48.533Z,99.90
2018-11-06T18:10:24.722Z,99.90
2018-11-06T18:13:00.850Z,99.90
2018-11-06T18:15:37.123Z,99.90
2018-11-06T18:18:13.361Z,99.90
2018-11-06T18:21:06.327Z,99.90
2018-11-06T18:23:42.488Z,99.90
2018-11-06T18:26:22.523Z,99.90
2018-11-06T18:28:58.775Z,99.90
2018-11-06T18:31:35.798Z,99.90
2018-11-06T18:34:12.142Z,99.90
2018-11-06T18:36:48.463Z,99.90
2018-11-06T18:39:24.650Z,99.90
2018-11-06T18:42:01.265Z,99.90
2018-11-06T18:44:37.995Z,99.90
2018-11-06T18:47:17.408Z,99.90
2018-11-06T18:50:00.882Z,99.90
2018-11-06T18:52:37.508Z,99.90
2018-11-06T18:55:14.960Z,99.90
2018-11-06T18:57:51.287Z,99.90
2018-11-06T19:00:27.769Z,99.90
2018-11-06T19:03:07.250Z,99.90
2018-11-06T19:05:46.108Z,99.90
2018-11-06T19:08:22.357Z,99.90
2018-11-06T19:10:58.717Z,99.90
2018-11-06T19:13:34.820Z,99.90
2018-11-06T19:16:18.973Z,99.90
2018-11-06T19:19:01.082Z,99.90
2018-11-06T19:21:37.604Z,99.90
2018-11-06T19:24:13.893Z,99.90
2018-11-06T19:26:50.196Z,99.90
2018-11-06T19:29:33.393Z,99.90
2018-11-06T19:32:09.932Z,99.90
2018-11-06T19:34:49.974Z,99.90
2018-11-06T19:37:27.428Z,99.90
2018-11-06T19:40:05.215Z,99.90
2018-11-06T19:42:42.632Z,99.90
2018-11-06T19:45:24.042Z,99.90
2018-11-06T19:48:01.641Z,99.90
2018-11-06T19:50:39.193Z,99.90
2018-11-06T19:53:19.700Z,99.90
2018-11-06T19:55:57.097Z,99.90
2018-11-06T19:58:38.345Z,99.90
2018-11-06T20:01:15.271Z,99.90
2018-11-06T20:03:54.219Z,99.90
2018-11-06T20:06:32.090Z,99.90
2018-11-06T20:09:12.115Z,99.90
2018-11-06T20:11:49.801Z,99.90
2018-11-06T20:14:27.066Z,99.90
2018-11-06T20:17:04.106Z,99.90
2018-11-06T20:19:40.686Z,99.90
2018-11-06T20:22:17.974Z,99.90
2018-11-06T20:24:55.464Z,99.90
2018-11-06T20:27:32.207Z,99.90
2018-11-06T20:30:23.019Z,99.90
2018-11-06T20:33:01.119Z,99.90
2018-11-06T20:35:39.301Z,99.90
2018-11-06T20:38:17.105Z,99.90
2018-11-06T20:41:01.560Z,99.90
2018-11-06T20:43:39.805Z,99.90
2018-11-06T20:46:18.721Z,99.90
2018-11-06T20:48:56.463Z,99.90
2018-11-06T20:51:33.312Z,99.90
2018-11-06T20:54:10.444Z,99.90
2018-11-06T20:56:57.630Z,99.90
2018-11-06T20:59:35.763Z,99.90
2018-11-06T21:02:13.450Z,99.90
2018-11-06T21:04:55.871Z,99.90
2018-11-06T21:07:33.637Z,99.90
2018-11-06T21:10:10.495Z,99.90
2018-11-06T21:13:02.062Z,99.90
2018-11-06T21:15:42.101Z,99.90
2018-11-06T21:18:18.324Z,99.90
2018-11-06T21:20:56.551Z,99.90
2018-11-06T21:23:32.948Z,99.90
2018-11-06T21:26:09.951Z,99.90
2018-11-06T21:28:46.189Z,99.90
2018-11-06T21:31:22.703Z,99.90
2018-11-06T21:33:58.911Z,99.90
2018-11-06T21:36:38.598Z,99.90
2018-11-06T21:39:14.913Z,99.90
2018-11-06T21:41:51.296Z,99.90
2018-11-06T21:44:27.739Z,99.90
2018-11-06T21:47:04.637Z,99.90
2018-11-06T21:49:40.752Z,99.90
2018-11-06T21:52:17.193Z,99.90
2018-11-06T21:54:53.218Z,99.90
2018-11-06T21:57:29.506Z,99.90
2018-11-06T22:00:08.826Z,99.90
2018-11-06T22:02:45.199Z,99.90
2018-11-06T22:05:22.017Z,99.90
2018-11-06T22:08:02.467Z,99.90
2018-11-06T22:10:38.644Z,99.90
2018-11-06T22:13:14.859Z,99.90
2018-11-06T22:15:51.102Z,99.90
2018-11-06T22:18:27.300Z,99.90
2018-11-06T22:21:03.590Z,99.90
2018-11-06T22:23:39.777Z,99.90
2018-11-06T22:26:19.822Z,99.90
2018-11-06T22:28:56.405Z,99.90
2018-11-06T22:31:34.703Z,99.90
2018-11-06T22:34:10.810Z,99.90
2018-11-06T22:36:48.166Z,99.90
2018-11-06T22:39:24.471Z,99.90
2018-11-06T22:42:00.807Z,99.90
2018-11-06T22:44:36.939Z,99.90
2018-11-06T22:47:13.164Z,99.90
2018-11-06T22:49:49.616Z,99.90
2018-11-06T22:52:25.897Z,99.90
2018-11-06T22:55:02.195Z,99.90
2018-11-06T22:57:38.401Z,99.90
2018-11-06T23:00:19.624Z,99.90
2018-11-06T23:02:56.180Z,99.90
2018-11-06T23:05:32.187Z,99.90
2018-11-06T23:08:13.549Z,99.90
2018-11-06T23:10:53.853Z,99.90
2018-11-06T23:13:29.960Z,99.90
2018-11-06T23:16:06.254Z,99.90
2018-11-06T23:18:42.648Z,99.90
2018-11-06T23:21:18.928Z,99.90
2018-11-06T23:23:55.128Z,99.90
2018-11-06T23:26:31.475Z,99.90
2018-11-06T23:29:07.653Z,99.90
2018-11-06T23:31:44.272Z,99.90
2018-11-06T23:34:20.417Z,99.90
2018-11-06T23:36:56.538Z,99.90
2018-11-06T23:39:33.085Z,99.90
2018-11-06T23:42:09.245Z,99.90
2018-11-06T23:44:45.352Z,99.90
2018-11-06T23:47:21.542Z,99.90
2018-11-06T23:49:57.805Z,99.90
2018-11-06T23:52:34.061Z,99.90
2018-11-06T23:55:10.789Z,99.90
2018-11-06T23:57:46.850Z,99.90
